createdAt,value
2023-10-27T00:02:16.543Z,2.70
2023-10-27T00:04:43.893Z,3.05
2023-10-27T00:07:10.854Z,3.15
2023-10-27T00:09:39.086Z,2.67
2023-10-27T00:12:08.232Z,2.70
2023-10-27T00:14:35.539Z,3.10
2023-10-27T00:17:02.485Z,2.97
2023-10-27T00:19:29.824Z,6.88
2023-10-27T00:21:56.764Z,3.67
2023-10-27T00:24:23.920Z,2.95
2023-10-27T00:26:50.981Z,3.50
2023-10-27T00:29:18.287Z,3.17
2023-10-27T00:31:45.192Z,3.20
2023-10-27T00:34:12.446Z,3.47
2023-10-27T00:36:39.430Z,3.50
2023-10-27T00:39:06.890Z,3.40
2023-10-27T00:41:33.831Z,3.47
2023-10-27T00:44:01.092Z,3.35
2023-10-27T00:46:28.398Z,3.42
2023-10-27T00:48:56.374Z,3.60
2023-10-27T00:51:23.837Z,3.40
2023-10-27T00:53:53.616Z,3.40
2023-10-27T00:56:22.314Z,3.53
2023-10-27T00:58:50.888Z,3.83
2023-10-27T01:01:19.449Z,3.78
2023-10-27T01:03:47.182Z,3.38
2023-10-27T01:06:14.137Z,3.13
2023-10-27T01:08:41.730Z,3.33
2023-10-27T01:11:09.826Z,3.10
2023-10-27T01:13:37.007Z,3.45
2023-10-27T01:16:04.565Z,3.22
2023-10-27T01:18:31.765Z,3.30
2023-10-27T01:20:58.671Z,3.00
2023-10-27T01:23:26.983Z,2.90
2023-10-27T01:25:54.165Z,2.63
2023-10-27T01:28:21.327Z,2.92
2023-10-27T01:30:48.329Z,2.95
2023-10-27T01:33:15.438Z,3.20
2023-10-27T01:35:42.517Z,3.00
2023-10-27T01:38:09.775Z,3.50
2023-10-27T01:40:36.709Z,3.05
2023-10-27T01:43:04.083Z,3.35
2023-10-27T01:45:31.156Z,3.47
2023-10-27T01:47:58.472Z,3.30
2023-10-27T01:50:25.549Z,3.35
2023-10-27T01:52:52.851Z,2.97
2023-10-27T01:55:19.866Z,2.90
2023-10-27T01:57:47.034Z,3.03
2023-10-27T02:00:14.709Z,3.10
2023-10-27T02:02:41.902Z,3.03
2023-10-27T02:05:10.174Z,3.05
2023-10-27T02:07:37.452Z,2.97
2023-10-27T02:10:05.413Z,3.15
2023-10-27T02:12:32.688Z,3.83
2023-10-27T02:14:59.750Z,2.70
2023-10-27T02:17:28.562Z,3.00
2023-10-27T02:19:57.176Z,3.45
2023-10-27T02:22:24.541Z,3.05
2023-10-27T02:24:52.395Z,3.47
2023-10-27T02:27:19.635Z,3.00
2023-10-27T02:29:46.529Z,2.90
2023-10-27T02:32:13.733Z,3.25
2023-10-27T02:34:40.635Z,3.20
2023-10-27T02:37:07.895Z,4.05
2023-10-27T02:39:34.946Z,3.13
2023-10-27T02:42:02.254Z,3.22
2023-10-27T02:44:29.196Z,3.45
2023-10-27T02:46:56.453Z,3.90
2023-10-27T02:49:23.626Z,3.38
2023-10-27T02:51:50.870Z,3.70
2023-10-27T02:54:17.773Z,3.50
2023-10-27T02:56:44.917Z,3.70
2023-10-27T02:59:11.821Z,3.70
2023-10-27T03:01:39.012Z,3.38
2023-10-27T03:04:06.243Z,3.55
2023-10-27T03:06:33.520Z,3.80
2023-10-27T03:09:00.469Z,4.05
2023-10-27T03:11:27.833Z,3.60
2023-10-27T03:13:55.038Z,4.82
2023-10-27T03:16:23.270Z,4.28
2023-10-27T03:18:51.923Z,4.00
2023-10-27T03:21:19.329Z,3.67
2023-10-27T03:23:46.280Z,4.00
2023-10-27T03:26:13.532Z,4.53
2023-10-27T03:28:43.023Z,4.35
2023-10-27T03:31:14.543Z,4.13
2023-10-27T03:33:41.965Z,3.97
2023-10-27T03:36:09.250Z,4.30
2023-10-27T03:38:36.395Z,4.95
2023-10-27T03:41:04.047Z,4.07
2023-10-27T03:43:31.155Z,4.78
2023-10-27T03:45:58.371Z,4.80
2023-10-27T03:48:25.556Z,4.57
2023-10-27T03:50:54.128Z,4.43
2023-10-27T03:53:21.075Z,5.07
2023-10-27T03:55:54.865Z,5.45
2023-10-27T03:58:27.323Z,4.93
2023-10-27T04:01:00.648Z,5.38
2023-10-27T04:03:27.759Z,5.13
2023-10-27T04:05:54.923Z,5.82
2023-10-27T04:08:21.926Z,4.97
2023-10-27T04:10:49.126Z,5.00
2023-10-27T04:13:16.080Z,5.60
2023-10-27T04:15:46.011Z,5.05
2023-10-27T04:18:13.001Z,5.28
2023-10-27T04:20:41.196Z,4.93
2023-10-27T04:23:08.645Z,5.40
2023-10-27T04:25:36.718Z,5.28
2023-10-27T04:28:04.507Z,5.40
2023-10-27T04:30:33.186Z,5.20
2023-10-27T04:33:00.704Z,4.50
2023-10-27T04:35:29.070Z,4.95
2023-10-27T04:37:57.934Z,5.45
2023-10-27T04:40:25.706Z,4.80
2023-10-27T04:42:52.972Z,5.13
2023-10-27T04:45:20.643Z,5.72
2023-10-27T04:47:47.858Z,5.25
2023-10-27T04:50:15.181Z,5.35
2023-10-27T04:52:42.211Z,5.50
2023-10-27T04:55:12.240Z,5.25
2023-10-27T04:57:40.472Z,5.22
2023-10-27T05:00:11.331Z,4.90
2023-10-27T05:02:38.650Z,5.00
2023-10-27T05:05:06.259Z,5.53
2023-10-27T05:07:33.275Z,5.07
2023-10-27T05:10:00.602Z,5.40
2023-10-27T05:12:27.596Z,5.20
2023-10-27T05:14:55.584Z,6.22
2023-10-27T05:17:22.475Z,6.15
2023-10-27T05:19:49.636Z,5.97
2023-10-27T05:22:16.553Z,6.57
2023-10-27T05:24:43.969Z,5.63
2023-10-27T05:27:10.958Z,5.47
2023-10-27T05:29:38.216Z,5.93
2023-10-27T05:32:05.454Z,5.45
2023-10-27T05:34:32.948Z,5.05
2023-10-27T05:37:00.003Z,6.00
2023-10-27T05:39:28.155Z,5.40
2023-10-27T05:41:55.327Z,7.13
2023-10-27T05:44:22.469Z,5.80
2023-10-27T05:46:49.511Z,5.68
2023-10-27T05:49:16.684Z,6.10
2023-10-27T05:51:43.951Z,6.30
2023-10-27T05:54:11.199Z,6.03
2023-10-27T05:56:38.285Z,7.00
2023-10-27T05:59:06.993Z,8.45
2023-10-27T06:01:34.324Z,8.43
2023-10-27T06:04:01.666Z,8.93
2023-10-27T06:06:28.813Z,8.48
2023-10-27T06:08:56.659Z,8.63
2023-10-27T06:11:23.713Z,6.97
2023-10-27T06:13:50.979Z,8.07
2023-10-27T06:16:17.964Z,7.38
2023-10-27T06:18:45.181Z,7.10
2023-10-27T06:21:12.125Z,7.45
2023-10-27T06:23:39.421Z,7.40
2023-10-27T06:26:06.670Z,10.93
2023-10-27T06:28:36.556Z,8.15
2023-10-27T06:31:05.097Z,7.63
2023-10-27T06:33:35.705Z,7.47
2023-10-27T06:36:02.900Z,7.25
2023-10-27T06:38:30.962Z,6.65
2023-10-27T06:40:58.044Z,7.50
2023-10-27T06:43:25.853Z,7.28
2023-10-27T06:45:52.817Z,6.60
2023-10-27T06:48:20.179Z,7.03
2023-10-27T06:50:47.337Z,7.00
2023-10-27T06:53:14.599Z,7.30
2023-10-27T06:55:42.327Z,6.70
2023-10-27T06:58:10.158Z,6.85
2023-10-27T07:00:37.325Z,7.15
2023-10-27T07:03:06.412Z,7.50
2023-10-27T07:05:37.347Z,6.95
2023-10-27T07:08:06.797Z,7.28
2023-10-27T07:10:34.352Z,6.57
2023-10-27T07:13:01.625Z,7.47
2023-10-27T07:15:28.650Z,7.80
2023-10-27T07:17:55.912Z,7.95
2023-10-27T07:20:23.643Z,7.25
2023-10-27T07:22:50.954Z,11.13
2023-10-27T07:25:18.288Z,7.82
2023-10-27T07:27:46.711Z,8.30
2023-10-27T07:30:14.718Z,9.07
2023-10-27T07:32:42.103Z,8.85
2023-10-27T07:35:09.580Z,8.88
2023-10-27T07:37:36.961Z,9.80
2023-10-27T07:40:05.294Z,9.20
2023-10-27T07:42:33.541Z,8.75
2023-10-27T07:45:01.552Z,9.07
2023-10-27T07:47:28.905Z,10.15
2023-10-27T07:49:55.992Z,9.70
2023-10-27T07:52:23.343Z,10.20
2023-10-27T07:54:50.527Z,9.52
2023-10-27T07:57:17.829Z,9.40
2023-10-27T07:59:45.446Z,8.73
2023-10-27T08:02:12.997Z,8.48
2023-10-27T08:04:40.217Z,9.18
2023-10-27T08:07:08.647Z,8.68
2023-10-27T08:09:36.906Z,10.25
2023-10-27T08:12:07.745Z,10.35
2023-10-27T08:14:35.621Z,9.70
2023-10-27T08:17:03.463Z,10.10
2023-10-27T08:19:30.518Z,10.50
2023-10-27T08:21:57.716Z,9.70
2023-10-27T08:24:24.711Z,9.18
2023-10-27T08:26:51.919Z,9.20
2023-10-27T08:29:18.897Z,7.65
2023-10-27T08:31:46.133Z,7.55
2023-10-27T08:34:13.118Z,7.63
2023-10-27T08:36:40.566Z,6.85
2023-10-27T08:39:07.582Z,7.60
2023-10-27T08:41:39.733Z,6.47
2023-10-27T08:44:22.553Z,5.78
2023-10-27T08:46:54.983Z,6.20
2023-10-27T08:49:22.793Z,4.70
2023-10-27T08:51:50.020Z,4.72
2023-10-27T08:54:17.525Z,4.15
2023-10-27T08:56:44.768Z,3.85
2023-10-27T08:59:11.972Z,4.30
2023-10-27T09:01:39.234Z,4.63
2023-10-27T09:04:14.156Z,3.90
2023-10-27T09:06:43.237Z,4.00
2023-10-27T09:09:13.507Z,3.15
2023-10-27T09:11:46.468Z,3.60
2023-10-27T09:14:34.675Z,4.03
2023-10-27T09:17:11.751Z,3.40
2023-10-27T09:19:40.824Z,4.20
2023-10-27T09:22:17.724Z,4.57
2023-10-27T09:24:44.795Z,4.18
2023-10-27T09:27:14.516Z,6.68
2023-10-27T09:29:44.346Z,8.45
2023-10-27T09:32:26.917Z,11.63
2023-10-27T09:35:18.939Z,9.27
2023-10-27T09:37:50.727Z,6.38
2023-10-27T09:40:20.530Z,7.78
2023-10-27T09:42:53.938Z,11.38
2023-10-27T09:45:28.265Z,8.10
2023-10-27T09:48:04.074Z,6.45
2023-10-27T09:50:32.988Z,4.57
2023-10-27T09:53:02.326Z,4.57
2023-10-27T09:55:30.737Z,8.15
2023-10-27T09:58:01.099Z,6.38
2023-10-27T10:00:32.149Z,8.55
2023-10-27T10:03:00.744Z,11.63
2023-10-27T10:05:27.875Z,15.15
2023-10-27T10:07:58.413Z,9.13
2023-10-27T10:10:33.851Z,7.82
2023-10-27T10:13:20.930Z,15.38
2023-10-27T10:15:48.377Z,14.07
2023-10-27T10:18:21.543Z,7.95
2023-10-27T10:20:57.746Z,6.90
2023-10-27T10:23:51.931Z,5.32
2023-10-27T10:26:19.028Z,5.03
2023-10-27T10:28:48.067Z,4.90
2023-10-27T10:31:15.004Z,4.97
2023-10-27T10:33:45.447Z,4.78
2023-10-27T10:36:24.521Z,5.97
2023-10-27T10:38:52.844Z,4.13
2023-10-27T10:41:20.132Z,5.03
2023-10-27T10:44:17.389Z,4.40
2023-10-27T10:46:46.684Z,3.75
2023-10-27T10:49:25.004Z,4.68
2023-10-27T10:51:56.854Z,5.35
2023-10-27T10:54:31.040Z,4.32
2023-10-27T10:57:09.773Z,2.97
2023-10-27T10:59:38.041Z,3.67
2023-10-27T11:02:05.676Z,7.15
2023-10-27T11:07:05.924Z,6.22
2023-10-27T11:09:33.671Z,3.10
2023-10-27T11:12:02.200Z,3.15
2023-10-27T11:14:39.307Z,13.75
2023-10-27T11:17:06.646Z,4.30
2023-10-27T11:19:34.874Z,3.90
2023-10-27T11:22:01.881Z,4.35
2023-10-27T11:24:29.167Z,2.42
2023-10-27T11:26:56.086Z,3.30
2023-10-27T11:29:23.733Z,4.15
2023-10-27T11:31:51.124Z,6.22
2023-10-27T11:34:27.764Z,5.55
2023-10-27T11:37:00.640Z,3.30
2023-10-27T11:39:28.761Z,4.18
2023-10-27T11:42:01.962Z,5.72
2023-10-27T11:44:41.810Z,8.10
2023-10-27T11:47:08.919Z,6.55
2023-10-27T11:49:36.223Z,5.68
2023-10-27T11:52:04.483Z,5.30
2023-10-27T11:54:31.868Z,6.32
2023-10-27T11:56:58.988Z,3.70
2023-10-27T11:59:27.082Z,8.13
2023-10-27T12:01:54.845Z,5.55
2023-10-27T12:04:22.432Z,3.47
2023-10-27T12:06:54.337Z,3.85
2023-10-27T12:09:22.066Z,7.88
2023-10-27T12:11:49.680Z,5.63
2023-10-27T12:16:44.239Z,9.13
2023-10-27T12:19:15.124Z,6.03
2023-10-27T12:21:43.013Z,4.05
2023-10-27T12:24:11.302Z,5.60
2023-10-27T12:26:38.592Z,12.23
2023-10-27T12:29:06.159Z,5.95
2023-10-27T12:31:33.884Z,3.20
2023-10-27T12:34:01.641Z,3.80
2023-10-27T12:36:28.899Z,4.05
2023-10-27T12:38:56.174Z,5.72
2023-10-27T12:41:23.117Z,3.17
2023-10-27T12:43:50.351Z,4.00
2023-10-27T12:46:18.031Z,5.07
2023-10-27T12:48:45.625Z,5.85
2023-10-27T12:51:12.750Z,6.85
2023-10-27T12:53:40.161Z,3.10
2023-10-27T12:56:09.020Z,2.38
2023-10-27T12:58:36.886Z,2.33
2023-10-27T13:01:05.519Z,3.30
2023-10-27T13:03:32.820Z,3.47
2023-10-27T13:05:59.805Z,8.73
2023-10-27T13:08:27.247Z,3.97
2023-10-27T13:10:54.557Z,5.97
2023-10-27T13:13:22.952Z,3.97
2023-10-27T13:15:49.868Z,4.25
2023-10-27T13:18:17.348Z,5.82
2023-10-27T13:20:44.622Z,3.67
2023-10-27T13:23:12.197Z,6.07
2023-10-27T13:25:40.093Z,4.05
2023-10-27T13:28:07.804Z,4.88
2023-10-27T13:30:35.917Z,6.25
2023-10-27T13:33:04.125Z,4.82
2023-10-27T13:35:33.080Z,3.25
2023-10-27T13:38:08.039Z,7.97
2023-10-27T13:40:37.258Z,5.00
2023-10-27T13:43:04.904Z,6.93
2023-10-27T13:45:33.406Z,7.35
2023-10-27T13:48:01.023Z,4.60
2023-10-27T13:50:28.753Z,2.85
2023-10-27T13:52:57.337Z,2.90
2023-10-27T13:55:24.580Z,2.70
2023-10-27T13:57:52.376Z,3.80
2023-10-27T14:00:20.070Z,2.90
2023-10-27T14:02:47.705Z,5.35
2023-10-27T14:05:14.933Z,2.85
2023-10-27T14:07:42.288Z,4.15
2023-10-27T14:10:10.750Z,7.82
2023-10-27T14:12:39.021Z,3.10
2023-10-27T14:15:08.408Z,9.65
2023-10-27T14:17:38.625Z,12.68
2023-10-27T14:20:07.126Z,5.88
2023-10-27T14:22:37.949Z,7.18
2023-10-27T14:25:06.756Z,6.18
2023-10-27T14:27:34.315Z,2.67
2023-10-27T14:30:01.468Z,5.57
2023-10-27T14:32:28.736Z,3.90
2023-10-27T14:34:55.783Z,4.00
2023-10-27T14:37:24.149Z,2.55
2023-10-27T14:39:51.166Z,4.00
2023-10-27T14:42:18.405Z,10.73
2023-10-27T14:44:45.631Z,6.65
2023-10-27T14:47:13.305Z,4.20
2023-10-27T14:49:40.794Z,2.05
2023-10-27T14:52:11.159Z,3.30
2023-10-27T14:54:44.641Z,2.65
2023-10-27T14:57:12.140Z,3.95
2023-10-27T14:59:39.142Z,4.82
2023-10-27T15:02:07.171Z,6.50
2023-10-27T15:04:34.235Z,5.40
2023-10-27T15:07:03.710Z,3.38
2023-10-27T15:09:33.679Z,6.45
2023-10-27T15:12:00.969Z,4.50
2023-10-27T15:14:28.207Z,4.72
2023-10-27T15:16:55.572Z,2.53
2023-10-27T15:19:22.566Z,4.55
2023-10-27T15:21:49.925Z,3.55
2023-10-27T15:24:17.032Z,7.85
2023-10-27T15:26:46.145Z,7.22
2023-10-27T15:29:13.294Z,5.40
2023-10-27T15:31:42.144Z,3.20
2023-10-27T15:34:09.180Z,5.70
2023-10-27T15:36:36.468Z,2.30
2023-10-27T15:39:05.324Z,3.17
2023-10-27T15:41:39.890Z,1.80
2023-10-27T15:44:08.181Z,2.10
2023-10-27T15:46:37.702Z,2.80
2023-10-27T15:49:04.982Z,6.07
2023-10-27T15:51:32.237Z,7.13
2023-10-27T15:54:00.610Z,1.90
2023-10-27T15:56:28.223Z,2.50
2023-10-27T15:58:56.745Z,1.90
2023-10-27T16:01:24.810Z,3.53
2023-10-27T16:03:52.102Z,1.55
2023-10-27T16:06:26.198Z,2.70
2023-10-27T16:08:54.977Z,1.15
2023-10-27T16:11:25.419Z,5.10
2023-10-27T16:13:52.534Z,3.28
2023-10-27T16:16:20.235Z,2.00
2023-10-27T16:18:49.034Z,2.10
2023-10-27T16:21:17.258Z,1.90
2023-10-27T16:23:44.585Z,1.13
2023-10-27T16:26:12.507Z,1.30
2023-10-27T16:28:40.326Z,2.30
2023-10-27T16:31:07.982Z,2.22
2023-10-27T16:33:35.539Z,1.10
2023-10-27T16:36:05.258Z,1.55
2023-10-27T16:38:32.437Z,2.22
2023-10-27T16:41:06.156Z,2.40
2023-10-27T16:43:45.549Z,1.90
2023-10-27T16:46:14.194Z,2.15
2023-10-27T16:48:41.432Z,2.00
2023-10-27T16:51:18.498Z,1.40
2023-10-27T16:53:49.085Z,4.00
2023-10-27T16:56:19.248Z,2.00
2023-10-27T16:58:46.367Z,4.93
2023-10-27T17:01:14.221Z,2.55
2023-10-27T17:03:43.482Z,5.35
2023-10-27T17:06:10.876Z,1.48
2023-10-27T17:08:38.493Z,2.47
2023-10-27T17:11:07.114Z,3.40
2023-10-27T17:13:34.602Z,2.63
2023-10-27T17:16:08.070Z,1.95
2023-10-27T17:18:40.486Z,3.88
2023-10-27T17:21:20.039Z,3.13
2023-10-27T17:23:57.561Z,3.08
2023-10-27T17:26:25.795Z,1.30
2023-10-27T17:28:53.494Z,1.52
2023-10-27T17:31:24.314Z,2.00
2023-10-27T17:33:59.262Z,2.25
2023-10-27T17:36:30.717Z,1.50
2023-10-27T17:38:58.569Z,2.67
2023-10-27T17:41:27.724Z,1.52
2023-10-27T17:43:54.887Z,1.10
2023-10-27T17:46:22.332Z,2.35
2023-10-27T17:48:49.790Z,1.27
2023-10-27T17:51:17.553Z,3.50
2023-10-27T17:53:44.815Z,1.50
2023-10-27T17:56:12.784Z,1.58
2023-10-27T17:58:40.205Z,1.50
2023-10-27T18:01:11.193Z,1.60
2023-10-27T18:03:40.827Z,1.60
2023-10-27T18:06:13.268Z,5.63
2023-10-27T18:08:40.831Z,1.48
2023-10-27T18:11:09.527Z,1.60
2023-10-27T18:13:37.383Z,3.75
2023-10-27T18:16:07.078Z,2.15
2023-10-27T18:18:36.078Z,3.15
2023-10-27T18:21:11.598Z,1.88
2023-10-27T18:23:40.228Z,1.80
2023-10-27T18:26:18.452Z,1.80
2023-10-27T18:28:49.427Z,1.50
2023-10-27T18:31:18.181Z,3.75
2023-10-27T18:33:46.722Z,2.13
2023-10-27T18:36:16.433Z,1.92
2023-10-27T18:38:46.859Z,3.05
2023-10-27T18:41:15.624Z,2.80
2023-10-27T18:43:43.692Z,3.35
2023-10-27T18:46:14.330Z,1.23
2023-10-27T18:48:42.379Z,2.83
2023-10-27T18:51:12.698Z,2.28
2023-10-27T18:53:39.934Z,1.40
2023-10-27T18:56:09.022Z,1.85
2023-10-27T18:58:38.246Z,2.78
2023-10-27T19:01:09.224Z,2.45
2023-10-27T19:03:42.807Z,2.17
2023-10-27T19:06:11.875Z,2.92
2023-10-27T19:08:38.961Z,2.30
2023-10-27T19:11:12.374Z,3.65
2023-10-27T19:13:48.438Z,2.75
2023-10-27T19:16:17.229Z,4.13
2023-10-27T19:18:47.855Z,2.40
2023-10-27T19:21:18.149Z,5.07
2023-10-27T19:23:55.769Z,3.85
2023-10-27T19:26:25.091Z,5.68
2023-10-27T19:28:56.162Z,2.15
2023-10-27T19:31:26.474Z,2.30
2023-10-27T19:33:55.178Z,3.03
2023-10-27T19:36:23.028Z,2.30
2023-10-27T19:38:50.429Z,1.92
2023-10-27T19:41:18.302Z,2.45
2023-10-27T19:43:48.500Z,2.63
2023-10-27T19:46:19.018Z,2.80
2023-10-27T19:48:46.560Z,3.92
2023-10-27T19:51:14.658Z,5.78
2023-10-27T19:53:43.043Z,3.65
2023-10-27T19:56:17.577Z,3.88
2023-10-27T19:58:48.352Z,4.75
2023-10-27T20:01:24.056Z,4.03
2023-10-27T20:03:52.371Z,4.88
2023-10-27T20:06:19.769Z,3.15
2023-10-27T20:08:48.317Z,2.88
2023-10-27T20:11:18.805Z,3.63
2023-10-27T20:13:47.118Z,3.10
2023-10-27T20:16:22.880Z,2.90
2023-10-27T20:18:52.574Z,3.10
2023-10-27T20:21:20.451Z,2.75
2023-10-27T20:23:47.387Z,2.08
2023-10-27T20:26:15.858Z,3.42
2023-10-27T20:28:42.961Z,2.60
2023-10-27T20:31:10.318Z,3.13
2023-10-27T20:33:37.342Z,4.13
2023-10-27T20:36:06.580Z,3.72
2023-10-27T20:38:34.606Z,3.55
2023-10-27T20:41:01.997Z,4.10
2023-10-27T20:43:29.504Z,3.47
2023-10-27T20:45:57.040Z,3.03
2023-10-27T20:48:24.098Z,4.18
2023-10-27T20:50:51.408Z,4.97
2023-10-27T20:53:20.670Z,3.80
2023-10-27T20:55:47.960Z,3.30
2023-10-27T20:58:14.844Z,3.00
2023-10-27T21:00:42.035Z,4.97
2023-10-27T21:03:09.133Z,3.97
2023-10-27T21:05:36.611Z,8.57
2023-10-27T21:08:03.762Z,4.88
2023-10-27T21:10:31.316Z,4.22
2023-10-27T21:12:58.406Z,3.60
2023-10-27T21:15:25.965Z,4.30
2023-10-27T21:17:52.884Z,3.20
2023-10-27T21:20:20.120Z,3.13
2023-10-27T21:22:47.143Z,3.55
2023-10-27T21:25:14.705Z,2.35
2023-10-27T21:27:41.763Z,3.15
2023-10-27T21:30:10.627Z,3.83
2023-10-27T21:32:38.549Z,5.72
2023-10-27T21:35:08.385Z,3.90
2023-10-27T21:37:35.364Z,4.18
2023-10-27T21:40:03.920Z,6.40
2023-10-27T21:42:33.148Z,2.13
2023-10-27T21:45:00.358Z,3.47
2023-10-27T21:47:27.959Z,4.45
2023-10-27T21:49:55.226Z,3.10
2023-10-27T21:52:22.269Z,3.75
2023-10-27T21:54:49.601Z,5.70
2023-10-27T21:57:16.672Z,2.67
2023-10-27T21:59:44.448Z,1.85
2023-10-27T22:02:11.683Z,3.00
2023-10-27T22:04:39.116Z,2.40
2023-10-27T22:07:07.894Z,3.00
2023-10-27T22:09:35.640Z,2.08
2023-10-27T22:12:02.687Z,3.17
2023-10-27T22:14:30.398Z,2.33
2023-10-27T22:16:57.503Z,2.67
2023-10-27T22:19:24.987Z,4.88
2023-10-27T22:21:54.108Z,2.47
2023-10-27T22:24:22.021Z,4.90
2023-10-27T22:26:49.010Z,3.75
2023-10-27T22:29:16.448Z,2.00
2023-10-27T22:31:43.804Z,4.25
2023-10-27T22:34:13.060Z,2.78
2023-10-27T22:36:40.781Z,2.38
2023-10-27T22:39:08.026Z,3.05
2023-10-27T22:41:35.021Z,2.53
2023-10-27T22:44:02.331Z,1.90
2023-10-27T22:46:29.299Z,1.98
2023-10-27T22:48:56.599Z,5.35
2023-10-27T22:51:23.785Z,3.35
2023-10-27T22:53:51.312Z,1.70
2023-10-27T22:56:18.696Z,1.90
2023-10-27T22:58:46.222Z,2.25
2023-10-27T23:01:13.545Z,2.10
2023-10-27T23:03:40.910Z,1.63
2023-10-27T23:06:11.968Z,1.48
2023-10-27T23:08:39.820Z,1.40
2023-10-27T23:11:12.099Z,1.77
2023-10-27T23:13:41.660Z,1.75
2023-10-27T23:16:09.613Z,1.90
2023-10-27T23:18:44.621Z,1.48
2023-10-27T23:21:13.965Z,2.00
2023-10-27T23:23:43.872Z,1.50
2023-10-27T23:26:11.826Z,1.63
2023-10-27T23:28:40.767Z,1.52
2023-10-27T23:31:11.018Z,2.00
2023-10-27T23:33:40.363Z,1.50
2023-10-27T23:36:12.549Z,2.28
2023-10-27T23:38:41.858Z,2.92
2023-10-27T23:41:13.628Z,1.90
2023-10-27T23:43:42.481Z,1.52
2023-10-27T23:46:10.099Z,1.73
2023-10-27T23:48:38.123Z,2.05
2023-10-27T23:51:05.562Z,1.73
2023-10-27T23:53:32.782Z,1.40
2023-10-27T23:56:00.827Z,1.60
2023-10-27T23:58:29.364Z,1.90
